sensor_id;sensor_type;location;lat;lon;timestamp;pressure;altitude;pressure_sealevel;temperature;humidity
3748;BME280;1889;50.058;8.688;2023-11-18T00:00:36;101163.52;;;8.89;73.12
3748;BME280;1889;50.058;8.688;2023-11-18T00:03:06;101156.48;;;8.87;72.93
3748;BME280;1889;50.058;8.688;2023-11-18T00:05:35;101157.09;;;9.15;71.79
3748;BME280;1889;50.058;8.688;2023-11-18T00:08:04;101150.97;;;9.14;71.65
3748;BME280;1889;50.058;8.688;2023-11-18T00:10:34;101158.38;;;9.07;71.66
3748;BME280;1889;50.058;8.688;2023-11-18T00:13:03;101152.28;;;9.14;71.38
3748;BME280;1889;50.058;8.688;2023-11-18T00:15:32;101151.77;;;9.03;71.17
3748;BME280;1889;50.058;8.688;2023-11-18T00:18:03;101149.09;;;8.91;71.56
3748;BME280;1889;50.058;8.688;2023-11-18T00:20:33;101146.91;;;8.95;71.29
3748;BME280;1889;50.058;8.688;2023-11-18T00:23:04;101150.05;;;9.06;70.82
3748;BME280;1889;50.058;8.688;2023-11-18T00:25:33;101146.52;;;9.00;70.32
3748;BME280;1889;50.058;8.688;2023-11-18T00:28:04;101150.36;;;8.86;70.79
3748;BME280;1889;50.058;8.688;2023-11-18T00:30:35;101148.56;;;8.74;71.08
3748;BME280;1889;50.058;8.688;2023-11-18T00:33:04;101149.47;;;8.81;71.43
3748;BME280;1889;50.058;8.688;2023-11-18T00:35:33;101148.63;;;8.84;71.32
3748;BME280;1889;50.058;8.688;2023-11-18T00:38:03;101153.38;;;8.75;70.96
3748;BME280;1889;50.058;8.688;2023-11-18T00:40:33;101149.78;;;8.59;70.96
3748;BME280;1889;50.058;8.688;2023-11-18T00:43:03;101145.34;;;8.54;71.33
3748;BME280;1889;50.058;8.688;2023-11-18T00:45:33;101152.86;;;8.14;71.18
3748;BME280;1889;50.058;8.688;2023-11-18T00:48:02;101150.48;;;7.92;72.56
3748;BME280;1889;50.058;8.688;2023-11-18T00:50:33;101145.47;;;8.20;72.48
3748;BME280;1889;50.058;8.688;2023-11-18T00:53:03;101150.59;;;8.54;72.14
3748;BME280;1889;50.058;8.688;2023-11-18T00:55:33;101149.74;;;8.56;71.62
3748;BME280;1889;50.058;8.688;2023-11-18T00:58:02;101160.78;;;8.72;71.33
3748;BME280;1889;50.058;8.688;2023-11-18T01:00:33;101157.88;;;8.33;71.66
3748;BME280;1889;50.058;8.688;2023-11-18T01:03:02;101156.27;;;8.50;71.82
3748;BME280;1889;50.058;8.688;2023-11-18T01:05:32;101158.01;;;8.50;71.66
3748;BME280;1889;50.058;8.688;2023-11-18T01:08:01;101164.09;;;8.47;71.85
3748;BME280;1889;50.058;8.688;2023-11-18T01:10:30;101173.86;;;8.68;71.47
3748;BME280;1889;50.058;8.688;2023-11-18T01:13:00;101174.91;;;8.31;71.77
3748;BME280;1889;50.058;8.688;2023-11-18T01:15:30;101166.76;;;8.50;72.17
3748;BME280;1889;50.058;8.688;2023-11-18T01:17:59;101174.44;;;7.87;73.42
3748;BME280;1889;50.058;8.688;2023-11-18T01:20:29;101168.66;;;8.19;73.47
3748;BME280;1889;50.058;8.688;2023-11-18T01:22:58;101168.03;;;8.47;72.91
3748;BME280;1889;50.058;8.688;2023-11-18T01:25:28;101172.94;;;8.58;72.55
3748;BME280;1889;50.058;8.688;2023-11-18T01:27:57;101175.19;;;8.69;72.21
3748;BME280;1889;50.058;8.688;2023-11-18T01:30:28;101171.31;;;8.78;71.86
3748;BME280;1889;50.058;8.688;2023-11-18T01:32:57;101175.44;;;8.41;72.21
3748;BME280;1889;50.058;8.688;2023-11-18T01:35:28;101178.00;;;8.37;72.36
3748;BME280;1889;50.058;8.688;2023-11-18T01:37:59;101176.39;;;8.54;72.34
3748;BME280;1889;50.058;8.688;2023-11-18T01:40:28;101176.37;;;8.53;72.35
3748;BME280;1889;50.058;8.688;2023-11-18T01:42:59;101173.06;;;8.78;71.34
3748;BME280;1889;50.058;8.688;2023-11-18T01:45:28;101168.30;;;8.87;70.85
3748;BME280;1889;50.058;8.688;2023-11-18T01:47:58;101170.42;;;8.73;70.84
3748;BME280;1889;50.058;8.688;2023-11-18T01:50:28;101173.11;;;8.83;70.71
3748;BME280;1889;50.058;8.688;2023-11-18T01:52:58;101165.66;;;8.85;70.60
3748;BME280;1889;50.058;8.688;2023-11-18T01:55:29;101161.73;;;8.87;70.79
3748;BME280;1889;50.058;8.688;2023-11-18T01:57:58;101174.02;;;8.89;70.71
3748;BME280;1889;50.058;8.688;2023-11-18T02:00:29;101167.47;;;8.91;70.37
3748;BME280;1889;50.058;8.688;2023-11-18T02:02:58;101168.33;;;8.90;70.57
3748;BME280;1889;50.058;8.688;2023-11-18T02:05:28;101167.89;;;8.89;70.71
3748;BME280;1889;50.058;8.688;2023-11-18T02:07:57;101170.95;;;8.93;70.58
3748;BME280;1889;50.058;8.688;2023-11-18T02:10:28;101166.60;;;8.95;70.40
3748;BME280;1889;50.058;8.688;2023-11-18T02:13:12;101171.46;;;9.00;69.96
3748;BME280;1889;50.058;8.688;2023-11-18T02:15:42;101174.08;;;9.03;69.70
3748;BME280;1889;50.058;8.688;2023-11-18T02:18:13;101167.99;;;9.10;68.92
3748;BME280;1889;50.058;8.688;2023-11-18T02:20:45;101166.18;;;8.97;69.33
3748;BME280;1889;50.058;8.688;2023-11-18T02:23:15;101162.95;;;8.67;69.81
3748;BME280;1889;50.058;8.688;2023-11-18T02:25:46;101175.34;;;7.15;72.20
3748;BME280;1889;50.058;8.688;2023-11-18T02:28:15;101181.00;;;6.81;74.89
3748;BME280;1889;50.058;8.688;2023-11-18T02:30:46;101182.63;;;6.73;76.00
3748;BME280;1889;50.058;8.688;2023-11-18T02:33:29;101186.67;;;7.14;74.71
3748;BME280;1889;50.058;8.688;2023-11-18T02:36:02;101189.11;;;7.33;74.14
3748;BME280;1889;50.058;8.688;2023-11-18T02:38:32;101188.31;;;7.06;74.35
3748;BME280;1889;50.058;8.688;2023-11-18T02:41:06;101184.17;;;6.91;74.55
3748;BME280;1889;50.058;8.688;2023-11-18T02:43:38;101188.49;;;7.18;74.13
3748;BME280;1889;50.058;8.688;2023-11-18T02:46:08;101185.84;;;7.51;73.04
3748;BME280;1889;50.058;8.688;2023-11-18T02:48:40;101182.34;;;7.50;72.94
3748;BME280;1889;50.058;8.688;2023-11-18T02:51:10;101180.77;;;7.66;72.84
3748;BME280;1889;50.058;8.688;2023-11-18T02:53:40;101180.43;;;7.74;72.51
3748;BME280;1889;50.058;8.688;2023-11-18T02:56:11;101178.01;;;7.92;71.62
3748;BME280;1889;50.058;8.688;2023-11-18T02:58:40;101174.12;;;7.98;71.42
3748;BME280;1889;50.058;8.688;2023-11-18T03:01:10;101168.12;;;8.09;71.25
3748;BME280;1889;50.058;8.688;2023-11-18T03:03:39;101167.84;;;8.29;70.32
3748;BME280;1889;50.058;8.688;2023-11-18T03:06:10;101160.53;;;8.39;69.82
3748;BME280;1889;50.058;8.688;2023-11-18T03:08:39;101160.56;;;8.40;69.74
3748;BME280;1889;50.058;8.688;2023-11-18T03:11:09;101156.72;;;8.54;69.27
3748;BME280;1889;50.058;8.688;2023-11-18T03:13:39;101160.63;;;8.53;69.78
3748;BME280;1889;50.058;8.688;2023-11-18T03:16:08;101157.12;;;8.52;69.67
3748;BME280;1889;50.058;8.688;2023-11-18T03:18:42;101159.84;;;8.63;69.18
3748;BME280;1889;50.058;8.688;2023-11-18T03:21:12;101154.54;;;8.55;69.58
3748;BME280;1889;50.058;8.688;2023-11-18T03:23:42;101170.77;;;8.62;69.43
3748;BME280;1889;50.058;8.688;2023-11-18T03:26:11;101166.84;;;8.64;69.17
3748;BME280;1889;50.058;8.688;2023-11-18T03:28:41;101169.48;;;8.65;69.17
3748;BME280;1889;50.058;8.688;2023-11-18T03:31:10;101169.45;;;8.59;69.71
3748;BME280;1889;50.058;8.688;2023-11-18T03:33:40;101161.63;;;8.70;69.39
3748;BME280;1889;50.058;8.688;2023-11-18T03:36:10;101162.78;;;8.47;70.11
3748;BME280;1889;50.058;8.688;2023-11-18T03:38:40;101161.40;;;8.38;70.06
3748;BME280;1889;50.058;8.688;2023-11-18T03:41:09;101162.06;;;8.16;70.78
3748;BME280;1889;50.058;8.688;2023-11-18T03:43:41;101166.02;;;7.74;72.02
3748;BME280;1889;50.058;8.688;2023-11-18T03:46:10;101175.56;;;8.12;71.05
3748;BME280;1889;50.058;8.688;2023-11-18T03:48:39;101172.28;;;8.31;70.18
3748;BME280;1889;50.058;8.688;2023-11-18T03:51:08;101184.18;;;8.42;69.50
3748;BME280;1889;50.058;8.688;2023-11-18T03:53:38;101186.80;;;8.42;69.62
3748;BME280;1889;50.058;8.688;2023-11-18T03:56:08;101197.30;;;8.42;69.74
3748;BME280;1889;50.058;8.688;2023-11-18T03:58:37;101194.42;;;8.18;70.49
3748;BME280;1889;50.058;8.688;2023-11-18T04:01:08;101201.06;;;7.45;73.05
3748;BME280;1889;50.058;8.688;2023-11-18T04:03:39;101197.41;;;7.71;72.80
3748;BME280;1889;50.058;8.688;2023-11-18T04:06:10;101192.19;;;7.70;72.94
3748;BME280;1889;50.058;8.688;2023-11-18T04:08:44;101184.91;;;7.84;72.89
3748;BME280;1889;50.058;8.688;2023-11-18T04:11:14;101179.39;;;8.00;72.58
3748;BME280;1889;50.058;8.688;2023-11-18T04:13:44;101186.84;;;8.03;72.48
3748;BME280;1889;50.058;8.688;2023-11-18T04:16:14;101183.84;;;8.09;72.46
3748;BME280;1889;50.058;8.688;2023-11-18T04:18:45;101178.64;;;7.72;72.97
3748;BME280;1889;50.058;8.688;2023-11-18T04:21:14;101176.80;;;7.63;73.61
3748;BME280;1889;50.058;8.688;2023-11-18T04:23:43;101160.83;;;7.77;73.81
3748;BME280;1889;50.058;8.688;2023-11-18T04:26:14;101163.64;;;7.98;73.40
3748;BME280;1889;50.058;8.688;2023-11-18T04:28:44;101154.11;;;8.07;73.08
3748;BME280;1889;50.058;8.688;2023-11-18T04:31:13;101151.98;;;8.14;72.95
3748;BME280;1889;50.058;8.688;2023-11-18T04:33:42;101149.41;;;8.17;72.96
3748;BME280;1889;50.058;8.688;2023-11-18T04:36:12;101154.38;;;8.35;72.57
3748;BME280;1889;50.058;8.688;2023-11-18T04:38:43;101166.31;;;8.49;71.83
3748;BME280;1889;50.058;8.688;2023-11-18T04:41:12;101158.78;;;8.38;71.92
3748;BME280;1889;50.058;8.688;2023-11-18T04:43:41;101167.84;;;8.29;71.72
3748;BME280;1889;50.058;8.688;2023-11-18T04:46:11;101168.48;;;8.03;72.48
3748;BME280;1889;50.058;8.688;2023-11-18T04:48:40;101164.25;;;8.16;72.55
3748;BME280;1889;50.058;8.688;2023-11-18T04:51:10;101171.99;;;7.62;73.29
3748;BME280;1889;50.058;8.688;2023-11-18T04:53:40;101172.96;;;7.69;73.58
3748;BME280;1889;50.058;8.688;2023-11-18T04:56:09;101172.14;;;7.75;74.04
3748;BME280;1889;50.058;8.688;2023-11-18T04:58:39;101177.66;;;8.03;73.47
3748;BME280;1889;50.058;8.688;2023-11-18T05:01:08;101177.30;;;8.12;73.35
3748;BME280;1889;50.058;8.688;2023-11-18T05:03:38;101185.02;;;7.96;73.50
3748;BME280;1889;50.058;8.688;2023-11-18T05:06:07;101184.73;;;8.09;73.70
3748;BME280;1889;50.058;8.688;2023-11-18T05:08:37;101176.93;;;8.17;73.44
3748;BME280;1889;50.058;8.688;2023-11-18T05:11:06;101167.13;;;8.42;72.41
3748;BME280;1889;50.058;8.688;2023-11-18T05:13:35;101162.41;;;8.55;72.01
3748;BME280;1889;50.058;8.688;2023-11-18T05:16:07;101159.78;;;8.55;72.12
3748;BME280;1889;50.058;8.688;2023-11-18T05:18:38;101151.95;;;8.58;71.92
3748;BME280;1889;50.058;8.688;2023-11-18T05:21:07;101149.81;;;8.65;71.38
3748;BME280;1889;50.058;8.688;2023-11-18T05:23:37;101160.30;;;8.65;71.46
3748;BME280;1889;50.058;8.688;2023-11-18T05:26:06;101155.88;;;8.61;71.36
3748;BME280;1889;50.058;8.688;2023-11-18T05:28:37;101148.89;;;8.62;71.65
3748;BME280;1889;50.058;8.688;2023-11-18T05:31:06;101149.88;;;8.74;71.26
3748;BME280;1889;50.058;8.688;2023-11-18T05:33:36;101148.52;;;8.67;71.50
3748;BME280;1889;50.058;8.688;2023-11-18T05:36:06;101149.39;;;8.67;71.69
3748;BME280;1889;50.058;8.688;2023-11-18T05:38:36;101143.78;;;8.85;71.45
3748;BME280;1889;50.058;8.688;2023-11-18T05:41:05;101143.78;;;8.85;71.45
3748;BME280;1889;50.058;8.688;2023-11-18T05:43:36;101137.72;;;8.90;71.45
3748;BME280;1889;50.058;8.688;2023-11-18T05:46:07;101127.28;;;9.05;70.37
3748;BME280;1889;50.058;8.688;2023-11-18T05:48:51;101142.19;;;9.08;70.05
3748;BME280;1889;50.058;8.688;2023-11-18T05:51:22;101126.38;;;9.02;70.40
3748;BME280;1889;50.058;8.688;2023-11-18T05:53:52;101130.31;;;9.02;70.59
3748;BME280;1889;50.058;8.688;2023-11-18T05:56:22;101132.52;;;8.99;70.89
3748;BME280;1889;50.058;8.688;2023-11-18T05:58:52;101127.64;;;8.90;71.19
3748;BME280;1889;50.058;8.688;2023-11-18T06:01:22;101124.15;;;8.94;71.50
3748;BME280;1889;50.058;8.688;2023-11-18T06:03:52;101116.27;;;8.89;71.71
3748;BME280;1889;50.058;8.688;2023-11-18T06:06:21;101124.58;;;8.93;71.70
3748;BME280;1889;50.058;8.688;2023-11-18T06:08:51;101125.91;;;8.90;72.07
3748;BME280;1889;50.058;8.688;2023-11-18T06:11:21;101131.20;;;8.99;72.20
3748;BME280;1889;50.058;8.688;2023-11-18T06:13:52;101130.73;;;8.97;72.19
3748;BME280;1889;50.058;8.688;2023-11-18T06:16:25;101128.03;;;8.85;72.42
3748;BME280;1889;50.058;8.688;2023-11-18T06:18:56;101135.71;;;8.50;73.42
3748;BME280;1889;50.058;8.688;2023-11-18T06:21:27;101140.33;;;8.30;73.87
3748;BME280;1889;50.058;8.688;2023-11-18T06:24:00;101139.08;;;7.47;77.86
3748;BME280;1889;50.058;8.688;2023-11-18T06:26:32;101141.23;;;7.43;78.95
3748;BME280;1889;50.058;8.688;2023-11-18T06:29:04;101135.73;;;7.59;78.35
3748;BME280;1889;50.058;8.688;2023-11-18T06:31:34;101142.87;;;7.74;77.84
3748;BME280;1889;50.058;8.688;2023-11-18T06:34:04;101147.56;;;7.62;78.62
3748;BME280;1889;50.058;8.688;2023-11-18T06:36:33;101137.73;;;7.43;79.90
3748;BME280;1889;50.058;8.688;2023-11-18T06:39:02;101143.88;;;7.88;78.89
3748;BME280;1889;50.058;8.688;2023-11-18T06:41:33;101140.62;;;8.13;77.75
3748;BME280;1889;50.058;8.688;2023-11-18T06:44:05;101143.16;;;8.02;77.76
3748;BME280;1889;50.058;8.688;2023-11-18T06:46:41;101147.83;;;7.89;78.50
3748;BME280;1889;50.058;8.688;2023-11-18T06:49:11;101135.76;;;8.07;78.25
3748;BME280;1889;50.058;8.688;2023-11-18T06:51:42;101141.31;;;8.40;77.40
3748;BME280;1889;50.058;8.688;2023-11-18T06:54:12;101140.51;;;8.52;76.94
3748;BME280;1889;50.058;8.688;2023-11-18T06:56:42;101138.64;;;8.35;77.45
3748;BME280;1889;50.058;8.688;2023-11-18T06:59:13;101142.66;;;8.46;77.35
3748;BME280;1889;50.058;8.688;2023-11-18T07:01:42;101134.39;;;8.50;77.27
3748;BME280;1889;50.058;8.688;2023-11-18T07:04:12;101146.73;;;8.64;77.17
3748;BME280;1889;50.058;8.688;2023-11-18T07:06:42;101145.55;;;8.86;76.39
3748;BME280;1889;50.058;8.688;2023-11-18T07:09:12;101147.80;;;8.97;75.71
3748;BME280;1889;50.058;8.688;2023-11-18T07:11:48;101151.23;;;8.82;75.80
3748;BME280;1889;50.058;8.688;2023-11-18T07:14:19;101149.59;;;9.04;75.06
3748;BME280;1889;50.058;8.688;2023-11-18T07:16:48;101141.27;;;9.00;75.16
3748;BME280;1889;50.058;8.688;2023-11-18T07:19:18;101142.19;;;9.08;74.81
3748;BME280;1889;50.058;8.688;2023-11-18T07:21:50;101137.80;;;9.10;74.89
3748;BME280;1889;50.058;8.688;2023-11-18T07:24:19;101137.36;;;9.06;74.80
3748;BME280;1889;50.058;8.688;2023-11-18T07:26:49;101136.05;;;9.06;74.57
3748;BME280;1889;50.058;8.688;2023-11-18T07:29:19;101133.45;;;9.18;74.23
3748;BME280;1889;50.058;8.688;2023-11-18T07:31:49;101123.84;;;9.25;73.82
3748;BME280;1889;50.058;8.688;2023-11-18T07:34:18;101123.87;;;9.23;74.08
3748;BME280;1889;50.058;8.688;2023-11-18T07:36:48;101123.84;;;9.15;74.27
3748;BME280;1889;50.058;8.688;2023-11-18T07:39:18;101140.03;;;9.15;74.61
3748;BME280;1889;50.058;8.688;2023-11-18T07:41:49;101154.52;;;9.24;74.62
3748;BME280;1889;50.058;8.688;2023-11-18T07:44:18;101168.96;;;9.24;74.81
3748;BME280;1889;50.058;8.688;2023-11-18T07:46:48;101164.15;;;9.28;74.72
3748;BME280;1889;50.058;8.688;2023-11-18T07:49:18;101157.63;;;9.39;74.19
3748;BME280;1889;50.058;8.688;2023-11-18T07:51:47;101153.69;;;9.42;74.06
3748;BME280;1889;50.058;8.688;2023-11-18T07:54:16;101155.02;;;9.40;74.51
3748;BME280;1889;50.058;8.688;2023-11-18T07:56:46;101159.43;;;9.58;73.91
3748;BME280;1889;50.058;8.688;2023-11-18T07:59:18;101158.58;;;9.61;73.79
3748;BME280;1889;50.058;8.688;2023-11-18T08:01:47;101162.10;;;9.64;73.75
3748;BME280;1889;50.058;8.688;2023-11-18T08:04:16;101169.09;;;9.67;73.72
3748;BME280;1889;50.058;8.688;2023-11-18T08:06:49;101159.89;;;9.62;74.09
3748;BME280;1889;50.058;8.688;2023-11-18T08:09:19;101165.17;;;9.70;73.79
3748;BME280;1889;50.058;8.688;2023-11-18T08:11:50;101164.71;;;9.56;74.30
3748;BME280;1889;50.058;8.688;2023-11-18T08:14:21;101166.03;;;9.63;74.38
3748;BME280;1889;50.058;8.688;2023-11-18T08:16:50;101161.25;;;9.77;73.74
3748;BME280;1889;50.058;8.688;2023-11-18T08:19:21;101162.55;;;9.71;74.08
3748;BME280;1889;50.058;8.688;2023-11-18T08:21:51;101153.78;;;9.74;74.33
3748;BME280;1889;50.058;8.688;2023-11-18T08:24:20;101162.59;;;9.86;73.93
3748;BME280;1889;50.058;8.688;2023-11-18T08:26:49;101167.38;;;9.72;74.60
3748;BME280;1889;50.058;8.688;2023-11-18T08:29:19;101178.75;;;9.74;75.03
3748;BME280;1889;50.058;8.688;2023-11-18T08:31:49;101181.39;;;9.75;75.28
3748;BME280;1889;50.058;8.688;2023-11-18T08:34:19;101163.44;;;9.82;75.56
3748;BME280;1889;50.058;8.688;2023-11-18T08:36:48;101151.19;;;9.92;75.35
3748;BME280;1889;50.058;8.688;2023-11-18T08:39:19;101139.80;;;9.98;75.27
3748;BME280;1889;50.058;8.688;2023-11-18T08:41:49;101141.13;;;9.94;75.58
3748;BME280;1889;50.058;8.688;2023-11-18T08:44:18;101148.58;;;10.07;75.48
3748;BME280;1889;50.058;8.688;2023-11-18T08:46:48;101149.89;;;10.15;75.22
3748;BME280;1889;50.058;8.688;2023-11-18T08:49:19;101152.98;;;10.13;75.59
3748;BME280;1889;50.058;8.688;2023-11-18T08:51:51;101147.31;;;10.19;75.69
3748;BME280;1889;50.058;8.688;2023-11-18T08:54:23;101145.09;;;10.13;75.98
3748;BME280;1889;50.058;8.688;2023-11-18T08:56:53;101137.63;;;10.02;76.84
3748;BME280;1889;50.058;8.688;2023-11-18T08:59:23;101136.30;;;10.08;76.71
3748;BME280;1889;50.058;8.688;2023-11-18T09:01:55;101133.67;;;10.06;76.97
3748;BME280;1889;50.058;8.688;2023-11-18T09:04:26;101130.66;;;10.26;76.76
3748;BME280;1889;50.058;8.688;2023-11-18T09:06:56;101118.37;;;10.36;76.24
3748;BME280;1889;50.058;8.688;2023-11-18T09:09:26;101117.95;;;10.20;76.88
3748;BME280;1889;50.058;8.688;2023-11-18T09:11:56;101128.02;;;10.32;76.78
3748;BME280;1889;50.058;8.688;2023-11-18T09:14:26;101133.72;;;10.24;76.99
3748;BME280;1889;50.058;8.688;2023-11-18T09:16:56;101127.98;;;10.10;77.39
3748;BME280;1889;50.058;8.688;2023-11-18T09:19:27;101125.82;;;10.24;77.57
3748;BME280;1889;50.058;8.688;2023-11-18T09:21:58;101123.19;;;10.41;77.29
3748;BME280;1889;50.058;8.688;2023-11-18T09:24:27;101125.36;;;10.58;76.46
3748;BME280;1889;50.058;8.688;2023-11-18T09:26:58;101121.86;;;10.61;76.47
3748;BME280;1889;50.058;8.688;2023-11-18T09:29:27;101125.37;;;10.54;76.78
3748;BME280;1889;50.058;8.688;2023-11-18T09:31:57;101130.63;;;10.61;77.02
3748;BME280;1889;50.058;8.688;2023-11-18T09:34:26;101124.03;;;10.67;76.95
3748;BME280;1889;50.058;8.688;2023-11-18T09:36:57;101127.55;;;10.69;77.10
3748;BME280;1889;50.058;8.688;2023-11-18T09:39:27;101125.35;;;10.55;77.82
3748;BME280;1889;50.058;8.688;2023-11-18T09:42:00;101122.25;;;10.74;77.52
3748;BME280;1889;50.058;8.688;2023-11-18T09:44:31;101131.42;;;10.88;77.15
3748;BME280;1889;50.058;8.688;2023-11-18T09:47:02;101136.27;;;10.94;76.70
3748;BME280;1889;50.058;8.688;2023-11-18T09:49:44;101134.50;;;10.92;76.85
3748;BME280;1889;50.058;8.688;2023-11-18T09:52:16;101137.97;;;11.06;76.21
3748;BME280;1889;50.058;8.688;2023-11-18T09:55:03;101133.58;;;11.08;76.07
3748;BME280;1889;50.058;8.688;2023-11-18T09:57:50;101131.34;;;11.14;75.66
3748;BME280;1889;50.058;8.688;2023-11-18T10:00:09;101123.41;;;11.20;75.19
3748;BME280;1889;50.058;8.688;2023-11-18T10:02:41;101127.36;;;11.20;75.29
3748;BME280;1889;50.058;8.688;2023-11-18T10:05:13;101120.88;;;11.00;76.04
3748;BME280;1889;50.058;8.688;2023-11-18T10:07:44;101114.72;;;10.96;76.33
3748;BME280;1889;50.058;8.688;2023-11-18T10:10:16;101115.10;;;11.14;76.08
3748;BME280;1889;50.058;8.688;2023-11-18T10:12:49;101120.38;;;11.19;75.88
3748;BME280;1889;50.058;8.688;2023-11-18T10:15:24;101113.31;;;11.25;75.46
3748;BME280;1889;50.058;8.688;2023-11-18T10:17:55;101117.70;;;11.26;75.49
3748;BME280;1889;50.058;8.688;2023-11-18T10:23:15;101113.75;;;11.26;75.99
3748;BME280;1889;50.058;8.688;2023-11-18T10:25:52;101119.42;;;11.32;75.84
3748;BME280;1889;50.058;8.688;2023-11-18T10:28:23;101117.66;;;11.34;75.75
3748;BME280;1889;50.058;8.688;2023-11-18T10:30:58;101127.33;;;11.27;75.48
3748;BME280;1889;50.058;8.688;2023-11-18T10:33:27;101125.13;;;11.31;75.60
3748;BME280;1889;50.058;8.688;2023-11-18T10:35:59;101121.58;;;11.37;75.01
3748;BME280;1889;50.058;8.688;2023-11-18T10:38:31;101115.47;;;11.33;75.23
3748;BME280;1889;50.058;8.688;2023-11-18T10:41:03;101122.94;;;11.34;75.25
3748;BME280;1889;50.058;8.688;2023-11-18T10:43:33;101111.08;;;11.34;75.51
3748;BME280;1889;50.058;8.688;2023-11-18T10:46:08;101101.45;;;11.21;76.08
3748;BME280;1889;50.058;8.688;2023-11-18T10:48:48;101109.80;;;11.25;76.31
3748;BME280;1889;50.058;8.688;2023-11-18T10:51:20;101098.81;;;11.27;76.43
3748;BME280;1889;50.058;8.688;2023-11-18T10:53:52;101103.61;;;11.35;76.19
3748;BME280;1889;50.058;8.688;2023-11-18T10:56:25;101087.31;;;11.37;76.25
3748;BME280;1889;50.058;8.688;2023-11-18T10:58:58;101078.48;;;11.47;75.76
3748;BME280;1889;50.058;8.688;2023-11-18T11:01:30;101074.53;;;11.47;75.85
3748;BME280;1889;50.058;8.688;2023-11-18T11:04:04;101076.77;;;11.41;76.26
3748;BME280;1889;50.058;8.688;2023-11-18T11:06:34;101066.18;;;11.47;76.32
3748;BME280;1889;50.058;8.688;2023-11-18T11:09:04;101067.59;;;11.31;76.62
3748;BME280;1889;50.058;8.688;2023-11-18T11:11:57;101080.41;;;11.18;77.73
3748;BME280;1889;50.058;8.688;2023-11-18T11:14:24;101066.31;;;11.25;77.48
3748;BME280;1889;50.058;8.688;2023-11-18T11:16:58;101062.28;;;11.37;76.90
3748;BME280;1889;50.058;8.688;2023-11-18T11:19:37;101054.33;;;11.44;76.68
3748;BME280;1889;50.058;8.688;2023-11-18T11:22:07;101047.69;;;11.52;76.33
3748;BME280;1889;50.058;8.688;2023-11-18T11:25:14;101042.85;;;11.52;76.50
3748;BME280;1889;50.058;8.688;2023-11-18T11:30:23;101027.47;;;11.54;76.60
3748;BME280;1889;50.058;8.688;2023-11-18T11:33:22;101027.02;;;11.58;76.38
3748;BME280;1889;50.058;8.688;2023-11-18T11:35:48;101011.37;;;11.35;77.04
3748;BME280;1889;50.058;8.688;2023-11-18T11:38:19;101002.97;;;11.43;76.98
3748;BME280;1889;50.058;8.688;2023-11-18T11:40:50;100997.69;;;11.43;77.19
3748;BME280;1889;50.058;8.688;2023-11-18T11:43:22;100991.44;;;11.55;76.91
3748;BME280;1889;50.058;8.688;2023-11-18T11:45:53;100988.30;;;11.61;76.63
3748;BME280;1889;50.058;8.688;2023-11-18T11:48:25;100981.27;;;11.60;76.95
3748;BME280;1889;50.058;8.688;2023-11-18T11:53:47;100977.48;;;11.42;77.81
3748;BME280;1889;50.058;8.688;2023-11-18T11:56:15;100981.38;;;11.51;78.17
3748;BME280;1889;50.058;8.688;2023-11-18T11:58:46;100963.56;;;11.22;78.99
3748;BME280;1889;50.058;8.688;2023-11-18T12:01:32;100954.22;;;11.37;79.41
3748;BME280;1889;50.058;8.688;2023-11-18T12:04:05;100960.67;;;11.58;78.79
3748;BME280;1889;50.058;8.688;2023-11-18T12:06:43;100956.72;;;11.55;78.56
3748;BME280;1889;50.058;8.688;2023-11-18T12:09:15;100959.47;;;11.43;79.25
3748;BME280;1889;50.058;8.688;2023-11-18T12:11:47;100952.25;;;11.65;78.70
3748;BME280;1889;50.058;8.688;2023-11-18T12:14:19;100942.92;;;11.78;78.22
3748;BME280;1889;50.058;8.688;2023-11-18T12:17:06;100938.82;;;11.92;77.29
3748;BME280;1889;50.058;8.688;2023-11-18T12:19:41;100935.86;;;11.83;77.19
3748;BME280;1889;50.058;8.688;2023-11-18T12:22:20;100926.11;;;11.92;77.28
3748;BME280;1889;50.058;8.688;2023-11-18T12:25:28;100906.27;;;11.95;76.98
3748;BME280;1889;50.058;8.688;2023-11-18T12:33:05;100914.48;;;11.61;77.85
3748;BME280;1889;50.058;8.688;2023-11-18T12:41:28;100911.64;;;11.85;77.28
3748;BME280;1889;50.058;8.688;2023-11-18T12:46:53;100915.49;;;11.96;76.70
3748;BME280;1889;50.058;8.688;2023-11-18T12:49:27;100905.27;;;12.08;75.35
3748;BME280;1889;50.058;8.688;2023-11-18T12:51:57;100905.72;;;12.06;75.67
3748;BME280;1889;50.058;8.688;2023-11-18T12:54:28;100899.06;;;12.10;75.62
3748;BME280;1889;50.058;8.688;2023-11-18T12:57:00;100898.59;;;12.14;75.68
3748;BME280;1889;50.058;8.688;2023-11-18T12:59:29;100894.55;;;12.20;75.22
3748;BME280;1889;50.058;8.688;2023-11-18T13:01:59;100880.04;;;12.20;74.81
3748;BME280;1889;50.058;8.688;2023-11-18T13:04:30;100880.94;;;12.17;75.27
3748;BME280;1889;50.058;8.688;2023-11-18T13:07:02;100876.95;;;12.22;75.57
3748;BME280;1889;50.058;8.688;2023-11-18T13:09:32;100870.23;;;12.31;74.77
3748;BME280;1889;50.058;8.688;2023-11-18T13:12:04;100866.23;;;12.33;74.59
3748;BME280;1889;50.058;8.688;2023-11-18T13:14:33;100863.13;;;12.35;74.80
3748;BME280;1889;50.058;8.688;2023-11-18T13:17:12;100856.09;;;12.35;74.87
3748;BME280;1889;50.058;8.688;2023-11-18T13:19:42;100853.44;;;12.37;75.10
3748;BME280;1889;50.058;8.688;2023-11-18T13:22:14;100841.08;;;12.40;75.30
3748;BME280;1889;50.058;8.688;2023-11-18T13:24:45;100832.64;;;12.12;76.46
3748;BME280;1889;50.058;8.688;2023-11-18T13:27:16;100831.19;;;12.23;76.85
3748;BME280;1889;50.058;8.688;2023-11-18T13:29:48;100829.66;;;12.38;76.47
3748;BME280;1889;50.058;8.688;2023-11-18T13:32:20;100826.58;;;12.39;76.70
3748;BME280;1889;50.058;8.688;2023-11-18T13:34:51;100831.84;;;12.40;76.96
3748;BME280;1889;50.058;8.688;2023-11-18T13:37:21;100837.95;;;12.42;76.61
3748;BME280;1889;50.058;8.688;2023-11-18T13:39:57;100820.87;;;12.38;76.72
3748;BME280;1889;50.058;8.688;2023-11-18T13:42:31;100820.87;;;12.38;76.72
3748;BME280;1889;50.058;8.688;2023-11-18T13:45:08;100812.06;;;12.39;77.27
3748;BME280;1889;50.058;8.688;2023-11-18T13:47:38;100791.44;;;12.01;78.66
3748;BME280;1889;50.058;8.688;2023-11-18T13:50:08;100791.44;;;12.01;78.66
3748;BME280;1889;50.058;8.688;2023-11-18T13:52:39;100792.92;;;12.23;77.96
3748;BME280;1889;50.058;8.688;2023-11-18T13:55:08;100791.62;;;12.21;77.88
3748;BME280;1889;50.058;8.688;2023-11-18T13:57:41;100795.56;;;12.23;78.31
3748;BME280;1889;50.058;8.688;2023-11-18T14:00:11;100790.63;;;12.30;78.26